Coplay, PA (18037)

4:39 AM EST on December 03, 2016 (GMT -0500)
Hokendauqua | | Change Station

Elev 310 ft 40.66 °N, 75.49 °W | Updated 23 seconds ago

Overcast
Overcast
39.8 °F
Feels Like 37 °F
N
4.0
Wind Variable Wind from NW
Gusts 6.0 mph

Today
High -- | Low -- °F
--% Chance of Precip.
Yesterday
High -- | Low -- °F
Precip. -- in
Pressure 30.01 in
Visibility 9.0 miles
Clouds Mostly Cloudy 2600 ft
Mostly Cloudy 3500 ft
Overcast 4800 ft
Windchill 37 °F
Dew Point 34 °F
Humidity 78%
Rainfall 0.00 in
Snow Depth Not available.
7:09 AM 4:34 PM
Waxing Crescent, 13% visible
METAR KABE 030851Z 28010G17KT 9SM -RA BKN026 BKN035 OVC048 04/01 A3000 RMK AO2 RAB36 SLP161 P0000 60000 T00440006 51014
Pressure 30.01 in
Visibility 9.0 miles
Clouds Mostly Cloudy 2600 ft
Mostly Cloudy 3500 ft
Overcast 4800 ft
Windchill 37 °F
Dew Point 34 °F
Humidity 78%
Rainfall 0.00 in
Snow Depth Not available.
7:09 AM 4:34 PM
Waxing Crescent, 13% visible
METAR KABE 030851Z 28010G17KT 9SM -RA BKN026 BKN035 OVC048 04/01 A3000 RMK AO2 RAB36 SLP161 P0000 60000 T00440006 51014

10-Day Weather Forecast

Almanac

Astronomy

Dec. 03, 2016 Rise Set
Actual Time
Civil Twilight
Nautical Twilight
Astronomical Twilight
Moon
Length of Visible Light
Length of Day
Tomorrow will be .
, % of the Moon is Illuminated

Today's Extremes

State Highs State Lows

Community

WunderPhotos

Upload Photos

1,955,434 photos uploaded!

WunderBlog® & News

Nearby

Air Quality

  Air Quality AQ Index Pollutant
Not available.

Snow Depth

Station Depth Elevation

Earthquake Activity

City Distance Mag. Time & Date
Minimum magnitude displayed is 2.5.

Coastal Water Temperatures

Place Temperature

Stations

Nearby Weather Stations

Station Location Temp. Windchill Dew Point Humidity Wind Precip. Elev Updated Type
                   

Watches & Warnings

There are currently no watches in effect.